createdAt,value
2023-02-22T00:03:08.137Z,2.52
2023-02-22T00:08:11.538Z,2.50
2023-02-22T00:13:14.659Z,2.47
2023-02-22T00:18:26.934Z,2.47
2023-02-22T00:23:31.932Z,2.42
2023-02-22T00:28:34.535Z,2.36
2023-02-22T00:33:39.549Z,2.37
2023-02-22T00:38:42.747Z,2.41
2023-02-22T00:43:45.502Z,2.41
2023-02-22T00:48:48.077Z,2.40
2023-02-22T00:53:50.642Z,2.36
2023-02-22T00:58:53.247Z,2.33
2023-02-22T01:03:55.934Z,2.32
2023-02-22T01:08:58.740Z,2.30
2023-02-22T01:14:01.499Z,2.26
2023-02-22T01:19:06.085Z,2.20
2023-02-22T01:24:10.080Z,2.21
2023-02-22T01:29:15.096Z,2.25
2023-02-22T01:34:18.596Z,2.28
2023-02-22T01:39:21.220Z,2.27
2023-02-22T01:44:41.555Z,2.26
2023-02-22T01:49:48.560Z,2.22
2023-02-22T01:54:56.047Z,2.16
2023-02-22T02:00:10.241Z,2.11
2023-02-22T02:05:14.334Z,2.05
2023-02-22T02:10:17.175Z,1.89
2023-02-22T02:15:36.143Z,1.79
2023-02-22T02:21:09.966Z,1.83
2023-02-22T02:26:32.208Z,1.86
2023-02-22T02:31:51.217Z,1.85
2023-02-22T02:37:07.873Z,1.74
2023-02-22T02:42:16.521Z,1.61
2023-02-22T02:47:27.276Z,1.52
2023-02-22T02:52:33.833Z,1.49
2023-02-22T02:57:38.850Z,1.45
2023-02-22T03:02:56.128Z,1.37
2023-02-22T03:08:24.442Z,1.37
2023-02-22T03:13:29.860Z,1.37
2023-02-22T03:18:46.214Z,1.40
2023-02-22T03:23:56.654Z,1.46
2023-02-22T03:29:05.015Z,1.43
2023-02-22T03:34:13.442Z,1.34
2023-02-22T03:39:18.719Z,1.25
2023-02-22T03:44:27.037Z,1.17
2023-02-22T03:49:55.807Z,1.17
2023-02-22T03:54:59.165Z,1.28
2023-02-22T04:00:06.656Z,1.38
2023-02-22T04:05:10.256Z,1.44
2023-02-22T04:10:15.251Z,1.45
2023-02-22T04:15:21.324Z,1.44
2023-02-22T04:20:25.467Z,1.41
2023-02-22T04:25:28.158Z,1.36
2023-02-22T04:30:31.014Z,1.33
2023-02-22T04:35:35.505Z,1.30
2023-02-22T04:40:38.826Z,1.31
2023-02-22T04:45:41.436Z,1.34
2023-02-22T04:50:44.056Z,1.39
2023-02-22T04:55:46.972Z,1.37
2023-02-22T05:00:49.576Z,1.27
2023-02-22T05:05:52.901Z,1.15
2023-02-22T05:10:58.465Z,1.02
2023-02-22T05:16:01.429Z,0.94
2023-02-22T05:21:04.171Z,0.85
2023-02-22T05:26:07.022Z,0.79
2023-02-22T05:31:09.750Z,0.75
2023-02-22T05:36:12.439Z,0.68
2023-02-22T05:41:15.795Z,0.64
2023-02-22T05:46:18.613Z,0.63
2023-02-22T05:51:21.329Z,0.65
2023-02-22T05:56:26.032Z,0.71
2023-02-22T06:01:28.938Z,0.78
2023-02-22T06:06:31.509Z,0.80
2023-02-22T06:11:34.094Z,0.82
2023-02-22T06:16:36.725Z,0.88
2023-02-22T06:21:41.969Z,0.92
2023-02-22T06:26:44.650Z,0.93
2023-02-22T06:31:47.279Z,0.97
2023-02-22T06:36:50.229Z,1.00
2023-02-22T06:41:55.155Z,1.07
2023-02-22T06:46:59.576Z,1.16
2023-02-22T06:52:06.937Z,1.20
2023-02-22T06:57:10.167Z,1.21
2023-02-22T07:02:17.812Z,1.25
2023-02-22T07:07:25.067Z,1.29
2023-02-22T07:12:27.612Z,1.33
2023-02-22T07:17:30.196Z,1.37
2023-02-22T07:22:32.728Z,1.42
2023-02-22T07:27:36.536Z,1.43
2023-02-22T07:32:39.437Z,1.44
2023-02-22T07:37:42.259Z,1.46
2023-02-22T07:43:02.174Z,1.49
2023-02-22T07:48:05.882Z,1.57
2023-02-22T07:53:18.855Z,1.62
2023-02-22T07:58:24.126Z,1.67
2023-02-22T08:03:27.227Z,1.72
2023-02-22T08:08:29.828Z,1.76
2023-02-22T08:13:32.848Z,1.82
2023-02-22T08:18:38.087Z,1.90
2023-02-22T08:23:40.674Z,1.95
2023-02-22T08:28:43.275Z,2.03
2023-02-22T08:33:49.821Z,2.17
2023-02-22T08:38:52.680Z,2.28
2023-02-22T08:43:55.207Z,2.26
2023-02-22T08:48:57.880Z,2.27
2023-02-22T08:54:00.596Z,2.31
2023-02-22T08:59:03.271Z,2.35
2023-02-22T09:04:05.947Z,2.47
2023-02-22T09:09:08.546Z,2.54
2023-02-22T09:14:11.098Z,2.58
2023-02-22T09:19:16.598Z,2.71
2023-02-22T09:24:19.937Z,2.90
2023-02-22T09:29:24.780Z,2.99
2023-02-22T09:34:29.648Z,3.02
2023-02-22T09:39:37.406Z,3.08
2023-02-22T09:44:53.468Z,3.20
2023-02-22T09:50:05.517Z,3.30
2023-02-22T09:55:45.308Z,3.41
2023-02-22T10:00:53.747Z,3.47
2023-02-22T10:06:19.361Z,3.45
2023-02-22T10:11:28.098Z,3.39
2023-02-22T10:16:40.382Z,3.43
2023-02-22T10:21:59.124Z,3.51
2023-02-22T10:27:03.282Z,3.56
2023-02-22T10:32:12.216Z,3.59
2023-02-22T10:37:34.478Z,3.68
2023-02-22T10:42:37.202Z,3.68
2023-02-22T10:47:40.883Z,3.70
2023-02-22T10:52:43.440Z,3.80
2023-02-22T10:57:49.686Z,3.89
2023-02-22T11:02:57.020Z,3.93
2023-02-22T11:08:17.122Z,3.91
2023-02-22T11:13:28.600Z,3.91
2023-02-22T11:18:35.483Z,3.89
2023-02-22T11:23:44.281Z,3.87
2023-02-22T11:28:57.012Z,3.84
2023-02-22T11:34:02.039Z,3.83
2023-02-22T11:39:22.166Z,3.90
2023-02-22T11:44:31.019Z,4.01
2023-02-22T11:49:39.428Z,4.09
2023-02-22T11:55:06.213Z,4.11
2023-02-22T12:00:39.408Z,4.15
2023-02-22T12:06:06.586Z,4.16
2023-02-22T12:11:57.179Z,4.14
2023-02-22T12:17:02.697Z,4.10
2023-02-22T12:22:12.835Z,4.05
2023-02-22T12:27:22.501Z,3.96
2023-02-22T12:32:47.536Z,3.86
2023-02-22T12:38:14.432Z,3.84
2023-02-22T12:43:26.027Z,3.84
2023-02-22T12:48:47.238Z,3.87
2023-02-22T12:53:57.951Z,3.95
2023-02-22T12:59:10.079Z,4.12
2023-02-22T13:04:20.546Z,4.29
2023-02-22T13:09:53.082Z,4.33
2023-02-22T13:15:20.142Z,4.40
2023-02-22T13:20:36.518Z,4.51
2023-02-22T13:25:49.767Z,4.61
2023-02-22T13:31:24.504Z,4.63
2023-02-22T13:36:59.010Z,4.52
2023-02-22T13:42:29.285Z,4.46
2023-02-22T13:47:53.447Z,4.40
2023-02-22T13:52:58.033Z,4.27
2023-02-22T13:58:07.151Z,4.07
2023-02-22T14:03:12.863Z,3.91
2023-02-22T14:08:18.963Z,3.78
2023-02-22T14:13:29.121Z,3.71
2023-02-22T14:18:41.079Z,3.66
2023-02-22T14:23:46.310Z,3.64
2023-02-22T14:28:55.167Z,3.61
2023-02-22T14:34:09.280Z,3.57
2023-02-22T14:39:43.926Z,3.53
2023-02-22T14:45:03.515Z,3.48
2023-02-22T14:50:30.478Z,3.45
2023-02-22T14:55:40.921Z,3.37
2023-02-22T15:00:47.220Z,3.30
2023-02-22T15:05:50.099Z,3.27
2023-02-22T15:10:54.375Z,3.23
2023-02-22T15:16:02.054Z,3.15
2023-02-22T15:21:11.556Z,3.10
2023-02-22T15:26:37.255Z,3.03
2023-02-22T15:31:46.997Z,2.92
2023-02-22T15:36:57.526Z,2.77
2023-02-22T15:42:09.686Z,2.67
2023-02-22T15:47:21.133Z,2.64
2023-02-22T15:52:26.524Z,2.60
2023-02-22T15:57:30.467Z,2.55
2023-02-22T16:02:39.915Z,2.46
2023-02-22T16:07:47.764Z,2.40
2023-02-22T16:13:02.708Z,2.40
2023-02-22T16:18:37.682Z,2.42
2023-02-22T16:24:15.428Z,2.44
2023-02-22T16:29:26.521Z,2.39
2023-02-22T16:34:30.207Z,2.32
2023-02-22T16:39:35.995Z,2.28
2023-02-22T16:44:39.766Z,2.23
2023-02-22T16:49:45.028Z,2.16
2023-02-22T16:54:49.296Z,2.11
2023-02-22T16:59:52.829Z,2.10
2023-02-22T17:04:56.329Z,2.07
2023-02-22T17:09:59.640Z,2.02
2023-02-22T17:15:03.495Z,1.96
2023-02-22T17:20:11.497Z,1.88
2023-02-22T17:25:25.447Z,1.83
2023-02-22T17:30:28.583Z,1.76
2023-02-22T17:35:36.605Z,1.70
2023-02-22T17:40:40.150Z,1.65
2023-02-22T17:45:43.192Z,1.60
2023-02-22T17:50:49.302Z,1.52
2023-02-22T17:55:52.979Z,1.47
2023-02-22T18:00:59.022Z,1.44
2023-02-22T18:06:01.819Z,1.41
2023-02-22T18:11:05.253Z,1.37
2023-02-22T18:16:10.369Z,1.33
2023-02-22T18:21:15.544Z,1.30
2023-02-22T18:26:21.904Z,1.32
2023-02-22T18:31:25.312Z,1.38
2023-02-22T18:36:29.258Z,1.42
2023-02-22T18:41:31.850Z,1.43
2023-02-22T18:46:36.871Z,1.38
2023-02-22T18:51:43.352Z,1.31
2023-02-22T18:56:45.997Z,1.28
2023-02-22T19:01:49.261Z,1.25
2023-02-22T19:06:56.530Z,1.20
2023-02-22T19:11:59.188Z,1.14
2023-02-22T19:17:02.978Z,1.11
2023-02-22T19:22:05.840Z,1.11
2023-02-22T19:27:09.003Z,1.06
2023-02-22T19:32:15.016Z,1.03
2023-02-22T19:37:18.701Z,1.00
2023-02-22T19:42:21.630Z,0.98
2023-02-22T19:47:24.350Z,0.94
2023-02-22T19:52:28.890Z,0.92
2023-02-22T19:57:32.231Z,0.90
2023-02-22T20:02:34.801Z,0.90
2023-02-22T20:07:37.507Z,0.88
2023-02-22T20:12:40.097Z,0.85
2023-02-22T20:17:44.874Z,0.81
2023-02-22T20:22:47.852Z,0.77
2023-02-22T20:27:50.465Z,0.75
2023-02-22T20:32:53.283Z,0.74
2023-02-22T20:37:56.327Z,0.73
2023-02-22T20:42:59.296Z,0.72
2023-02-22T20:48:02.904Z,0.68
2023-02-22T20:53:05.609Z,0.61
2023-02-22T20:58:08.254Z,0.56
2023-02-22T21:03:10.989Z,0.48
2023-02-22T21:08:15.585Z,0.41
2023-02-22T21:13:18.221Z,0.37
2023-02-22T21:18:23.350Z,0.32
2023-02-22T21:23:27.287Z,0.22
2023-02-22T21:28:49.943Z,0.16
2023-02-22T21:33:55.308Z,0.10
2023-02-22T21:39:00.836Z,0.07
2023-02-22T21:44:03.519Z,0.01
2023-02-22T21:49:06.155Z,-0.05
2023-02-22T21:54:11.976Z,-0.09
2023-02-22T21:59:20.378Z,-0.13
2023-02-22T22:04:31.370Z,-0.20
2023-02-22T22:09:37.432Z,-0.26
2023-02-22T22:14:40.512Z,-0.30
2023-02-22T22:19:48.902Z,-0.32
2023-02-22T22:24:53.787Z,-0.39
2023-02-22T22:29:57.316Z,-0.33
2023-02-22T22:35:00.525Z,-0.35
2023-02-22T22:40:05.356Z,-0.39
2023-02-22T22:45:11.651Z,-0.42
2023-02-22T22:50:18.774Z,-0.47
2023-02-22T22:55:24.114Z,-0.51
2023-02-22T23:00:34.813Z,-0.52
2023-02-22T23:05:39.911Z,-0.50
2023-02-22T23:10:42.616Z,-0.48
2023-02-22T23:15:48.655Z,-0.48
2023-02-22T23:20:55.442Z,-0.54
2023-02-22T23:26:18.143Z,-0.62
2023-02-22T23:31:21.178Z,-0.73
2023-02-22T23:36:26.411Z,-0.85
2023-02-22T23:41:29.900Z,-0.93
2023-02-22T23:46:32.960Z,-0.99
2023-02-22T23:51:41.898Z,-1.05
2023-02-22T23:56:56.069Z,-1.09
